createdAt,value
2023-02-27T00:00:18.513Z,3.63
2023-02-27T00:02:46.981Z,3.47
2023-02-27T00:05:15.052Z,3.72
2023-02-27T00:07:42.753Z,3.72
2023-02-27T00:10:11.268Z,4.07
2023-02-27T00:12:40.252Z,4.43
2023-02-27T00:15:09.587Z,4.82
2023-02-27T00:17:37.253Z,4.15
2023-02-27T00:20:05.808Z,3.90
2023-02-27T00:22:33.263Z,4.05
2023-02-27T00:25:00.851Z,3.70
2023-02-27T00:27:28.344Z,3.95
2023-02-27T00:29:57.197Z,4.53
2023-02-27T00:32:24.854Z,4.47
2023-02-27T00:34:52.733Z,3.90
2023-02-27T00:37:20.230Z,4.20
2023-02-27T00:39:47.805Z,3.58
2023-02-27T00:42:15.306Z,4.35
2023-02-27T00:44:43.037Z,4.85
2023-02-27T00:47:11.896Z,4.95
2023-02-27T00:49:39.511Z,4.63
2023-02-27T00:52:07.037Z,4.03
2023-02-27T00:54:34.571Z,4.57
2023-02-27T00:57:02.081Z,3.97
2023-02-27T00:59:29.582Z,4.53
2023-02-27T01:01:57.208Z,4.40
2023-02-27T01:04:26.093Z,4.95
2023-02-27T01:06:54.040Z,4.30
2023-02-27T01:09:21.671Z,5.03
2023-02-27T01:11:49.209Z,4.53
2023-02-27T01:14:16.710Z,4.22
2023-02-27T01:16:44.374Z,4.85
2023-02-27T01:19:11.944Z,4.72
2023-02-27T01:21:42.125Z,4.22
2023-02-27T01:24:09.801Z,4.43
2023-02-27T01:26:37.577Z,4.93
2023-02-27T01:29:06.581Z,4.88
2023-02-27T01:31:34.276Z,5.25
2023-02-27T01:34:01.885Z,4.93
2023-02-27T01:36:29.493Z,5.22
2023-02-27T01:38:58.352Z,5.85
2023-02-27T01:41:26.277Z,6.53
2023-02-27T01:43:55.232Z,5.10
2023-02-27T01:46:22.934Z,5.55
2023-02-27T01:48:50.562Z,5.40
2023-02-27T01:51:19.911Z,5.47
2023-02-27T01:53:49.301Z,5.68
2023-02-27T01:56:19.986Z,6.10
2023-02-27T01:58:48.857Z,5.55
2023-02-27T02:01:16.679Z,5.15
2023-02-27T02:03:48.870Z,5.97
2023-02-27T02:06:16.399Z,4.95
2023-02-27T02:08:49.304Z,5.40
2023-02-27T02:11:19.963Z,5.40
2023-02-27T02:13:49.844Z,6.05
2023-02-27T02:16:23.259Z,5.22
2023-02-27T02:18:54.989Z,5.32
2023-02-27T02:21:42.876Z,6.03
2023-02-27T02:24:25.839Z,4.97
2023-02-27T02:26:57.871Z,4.68
2023-02-27T02:29:40.241Z,4.38
2023-02-27T02:32:34.868Z,5.45
2023-02-27T02:35:28.625Z,5.47
2023-02-27T02:38:21.875Z,5.33
2023-02-27T02:40:54.806Z,5.95
2023-02-27T02:43:26.459Z,5.90
2023-02-27T02:45:59.154Z,5.25
2023-02-27T02:48:29.410Z,5.68
2023-02-27T02:51:02.592Z,4.60
2023-02-27T02:53:37.329Z,5.40
2023-02-27T02:56:07.477Z,5.28
2023-02-27T02:58:37.115Z,5.57
2023-02-27T03:01:10.222Z,4.90
2023-02-27T03:03:39.216Z,5.57
2023-02-27T03:06:08.965Z,5.55
2023-02-27T03:08:41.205Z,4.95
2023-02-27T03:11:08.948Z,5.10
2023-02-27T03:13:38.545Z,5.60
2023-02-27T03:16:09.004Z,5.57
2023-02-27T03:18:38.635Z,6.13
2023-02-27T03:21:08.405Z,5.60
2023-02-27T03:23:38.672Z,4.70
2023-02-27T03:26:08.001Z,4.38
2023-02-27T03:28:38.648Z,6.68
2023-02-27T03:31:10.485Z,5.32
2023-02-27T03:33:41.126Z,5.45
2023-02-27T03:36:10.741Z,5.03
2023-02-27T03:38:40.961Z,5.32
2023-02-27T03:41:13.587Z,5.03
2023-02-27T03:43:45.786Z,5.38
2023-02-27T03:46:14.752Z,5.20
2023-02-27T03:48:44.623Z,5.28
2023-02-27T03:51:12.981Z,5.57
2023-02-27T03:53:44.797Z,5.75
2023-02-27T03:56:15.197Z,5.28
2023-02-27T03:58:43.100Z,5.53
2023-02-27T04:01:10.662Z,5.40
2023-02-27T04:03:41.919Z,5.82
2023-02-27T04:06:23.438Z,5.70
2023-02-27T04:08:55.018Z,5.63
2023-02-27T04:11:40.205Z,5.07
2023-02-27T04:14:16.119Z,5.20
2023-02-27T04:16:51.332Z,5.95
2023-02-27T04:19:27.006Z,5.13
2023-02-27T04:22:00.323Z,5.20
2023-02-27T04:24:35.387Z,5.85
2023-02-27T04:27:06.937Z,5.10
2023-02-27T04:29:40.505Z,5.35
2023-02-27T04:32:14.308Z,5.65
2023-02-27T04:34:44.414Z,5.43
2023-02-27T04:37:13.803Z,5.93
2023-02-27T04:39:43.296Z,5.72
2023-02-27T04:42:13.012Z,5.20
2023-02-27T04:44:42.743Z,5.07
2023-02-27T04:47:11.525Z,5.63
2023-02-27T04:49:41.707Z,6.10
2023-02-27T04:52:11.523Z,6.40
2023-02-27T04:54:41.013Z,5.85
2023-02-27T04:57:10.590Z,5.68
2023-02-27T04:59:40.101Z,5.78
2023-02-27T05:02:13.273Z,5.43
2023-02-27T05:04:43.156Z,6.10
2023-02-27T05:07:13.304Z,5.97
2023-02-27T05:09:44.888Z,6.05
2023-02-27T05:12:16.011Z,6.22
2023-02-27T05:14:46.172Z,6.60
2023-02-27T05:17:16.047Z,6.07
2023-02-27T05:19:43.911Z,5.97
2023-02-27T05:22:18.612Z,7.13
2023-02-27T05:24:51.399Z,5.55
2023-02-27T05:27:21.297Z,5.30
2023-02-27T05:29:50.024Z,5.35
2023-02-27T05:32:23.794Z,6.75
2023-02-27T05:34:53.488Z,5.95
2023-02-27T05:37:22.985Z,7.28
2023-02-27T05:39:53.085Z,6.43
2023-02-27T05:42:23.294Z,6.25
2023-02-27T05:44:52.858Z,6.70
2023-02-27T05:47:23.008Z,7.20
2023-02-27T05:49:53.743Z,6.53
2023-02-27T05:52:23.559Z,6.40
2023-02-27T05:54:52.901Z,6.47
2023-02-27T05:57:24.128Z,5.72
2023-02-27T05:59:55.639Z,6.18
2023-02-27T06:02:24.864Z,6.68
2023-02-27T06:04:52.564Z,5.88
2023-02-27T06:07:21.072Z,5.80
2023-02-27T06:09:48.865Z,6.65
2023-02-27T06:12:16.772Z,6.60
2023-02-27T06:14:44.396Z,5.85
2023-02-27T06:17:11.984Z,6.32
2023-02-27T06:19:40.968Z,6.05
2023-02-27T06:22:08.517Z,5.95
2023-02-27T06:24:36.210Z,5.50
2023-02-27T06:27:03.786Z,6.65
2023-02-27T06:29:31.388Z,6.47
2023-02-27T06:31:59.501Z,5.85
2023-02-27T06:34:27.314Z,6.10
2023-02-27T06:36:56.258Z,5.50
2023-02-27T06:39:24.338Z,5.40
2023-02-27T06:41:51.976Z,7.20
2023-02-27T06:44:21.292Z,5.88
2023-02-27T06:46:48.857Z,6.30
2023-02-27T06:49:16.797Z,5.90
2023-02-27T06:51:45.150Z,6.28
2023-02-27T06:54:14.372Z,6.53
2023-02-27T06:56:41.851Z,4.65
2023-02-27T06:59:09.836Z,5.38
2023-02-27T07:01:37.745Z,5.97
2023-02-27T07:04:05.672Z,5.50
2023-02-27T07:07:34.046Z,4.95
2023-02-27T07:09:23.192Z,5.40
2023-02-27T07:11:50.775Z,5.60
2023-02-27T07:14:18.398Z,5.45
2023-02-27T07:16:47.168Z,6.72
2023-02-27T07:19:15.132Z,5.57
2023-02-27T07:21:42.640Z,5.40
2023-02-27T07:24:10.442Z,6.20
2023-02-27T07:26:39.388Z,6.05
2023-02-27T07:29:06.951Z,6.03
2023-02-27T07:31:35.749Z,5.20
2023-02-27T07:34:03.631Z,5.50
2023-02-27T07:36:31.594Z,4.68
2023-02-27T07:38:59.452Z,5.03
2023-02-27T07:41:30.705Z,4.45
2023-02-27T07:44:00.340Z,5.20
2023-02-27T07:46:28.592Z,5.20
2023-02-27T07:48:56.386Z,5.95
2023-02-27T07:51:24.028Z,5.20
2023-02-27T07:53:51.536Z,5.63
2023-02-27T07:56:19.884Z,5.00
2023-02-27T07:58:47.583Z,5.13
2023-02-27T08:01:16.552Z,4.45
2023-02-27T08:03:44.415Z,5.25
2023-02-27T08:06:12.014Z,5.25
2023-02-27T08:08:39.783Z,4.22
2023-02-27T08:11:07.564Z,4.75
2023-02-27T08:13:59.679Z,3.47
2023-02-27T08:16:25.118Z,3.97
2023-02-27T08:18:53.175Z,3.65
2023-02-27T08:21:20.923Z,3.95
2023-02-27T08:23:51.769Z,3.13
2023-02-27T08:26:21.061Z,3.55
2023-02-27T08:28:48.702Z,4.22
2023-02-27T08:31:16.465Z,3.90
2023-02-27T08:33:45.398Z,4.15
2023-02-27T08:36:13.012Z,4.15
2023-02-27T08:38:41.204Z,4.05
2023-02-27T08:41:08.968Z,3.65
2023-02-27T08:43:38.896Z,3.17
2023-02-27T08:46:06.843Z,3.63
2023-02-27T08:48:34.617Z,3.55
2023-02-27T08:51:03.495Z,3.67
2023-02-27T08:53:31.151Z,4.25
2023-02-27T08:55:58.829Z,3.60
2023-02-27T08:58:26.373Z,3.03
2023-02-27T09:00:53.947Z,3.50
2023-02-27T09:03:21.488Z,4.15
2023-02-27T09:05:49.869Z,3.10
2023-02-27T09:08:18.892Z,3.20
2023-02-27T09:10:46.477Z,3.13
2023-02-27T09:13:14.387Z,2.60
2023-02-27T09:15:41.948Z,3.25
2023-02-27T09:18:09.624Z,3.05
2023-02-27T09:20:37.240Z,2.83
2023-02-27T09:23:05.089Z,2.92
2023-02-27T09:25:34.099Z,3.00
2023-02-27T09:28:01.582Z,2.72
2023-02-27T09:30:29.393Z,2.88
2023-02-27T09:32:56.973Z,3.15
2023-02-27T09:35:25.762Z,3.42
2023-02-27T09:37:53.614Z,3.45
2023-02-27T09:40:24.033Z,3.03
2023-02-27T09:42:53.407Z,3.42
2023-02-27T09:45:24.269Z,3.60
2023-02-27T09:47:54.123Z,2.78
2023-02-27T09:50:42.704Z,3.42
2023-02-27T09:53:13.546Z,3.03
2023-02-27T09:55:42.596Z,3.30
2023-02-27T09:58:22.015Z,2.90
2023-02-27T10:00:50.463Z,3.08
2023-02-27T10:03:30.482Z,3.53
2023-02-27T10:06:07.259Z,2.65
2023-02-27T10:08:37.409Z,3.35
2023-02-27T10:11:06.335Z,3.13
2023-02-27T10:13:40.872Z,2.75
2023-02-27T10:16:11.585Z,3.35
2023-02-27T10:18:46.301Z,3.42
2023-02-27T10:21:15.837Z,3.00
2023-02-27T10:23:46.281Z,3.05
2023-02-27T10:26:19.443Z,3.78
2023-02-27T10:28:48.620Z,3.08
2023-02-27T10:31:20.170Z,3.50
2023-02-27T10:33:49.099Z,3.40
2023-02-27T10:36:32.410Z,2.45
2023-02-27T10:39:03.988Z,2.95
2023-02-27T10:41:34.354Z,3.20
2023-02-27T10:44:05.143Z,3.58
2023-02-27T10:46:36.756Z,3.20
2023-02-27T10:49:16.028Z,3.40
2023-02-27T10:51:44.910Z,3.38
2023-02-27T10:54:15.460Z,3.67
2023-02-27T10:56:44.865Z,3.40
2023-02-27T10:59:21.599Z,3.90
2023-02-27T11:01:50.493Z,3.58
2023-02-27T11:04:24.869Z,3.50
2023-02-27T11:06:53.740Z,3.08
2023-02-27T11:09:22.705Z,3.88
2023-02-27T11:11:50.516Z,3.20
2023-02-27T11:14:30.309Z,3.65
2023-02-27T11:16:58.678Z,2.88
2023-02-27T11:19:27.486Z,3.00
2023-02-27T11:22:07.192Z,2.78
2023-02-27T11:24:42.681Z,2.90
2023-02-27T11:27:20.889Z,3.53
2023-02-27T11:29:58.064Z,2.90
2023-02-27T11:32:27.402Z,3.63
2023-02-27T11:34:54.965Z,4.75
2023-02-27T11:37:25.081Z,3.80
2023-02-27T11:39:53.770Z,3.10
2023-02-27T11:42:24.787Z,3.78
2023-02-27T11:44:55.495Z,3.55
2023-02-27T11:47:27.923Z,3.45
2023-02-27T11:50:07.196Z,3.30
2023-02-27T11:52:38.142Z,4.32
2023-02-27T11:55:07.067Z,3.78
2023-02-27T11:57:38.161Z,3.67
2023-02-27T12:00:07.980Z,3.58
2023-02-27T12:02:44.517Z,3.90
2023-02-27T12:05:15.684Z,3.45
2023-02-27T12:07:46.055Z,3.85
2023-02-27T12:10:17.204Z,4.57
2023-02-27T12:12:48.127Z,4.07
2023-02-27T12:15:25.515Z,3.58
2023-02-27T12:20:53.530Z,3.10
2023-02-27T12:23:24.023Z,4.35
2023-02-27T12:25:52.744Z,3.67
2023-02-27T12:28:37.171Z,3.70
2023-02-27T12:33:37.732Z,3.72
2023-02-27T12:36:05.750Z,3.40
2023-02-27T12:38:36.117Z,4.78
2023-02-27T12:41:12.607Z,3.90
2023-02-27T12:43:45.848Z,4.05
2023-02-27T12:46:22.353Z,3.67
2023-02-27T12:48:59.627Z,4.43
2023-02-27T12:51:32.710Z,3.67
2023-02-27T12:54:04.982Z,3.60
2023-02-27T12:56:37.442Z,3.83
2023-02-27T12:59:08.378Z,3.10
2023-02-27T13:01:40.664Z,3.78
2023-02-27T13:04:17.264Z,3.33
2023-02-27T13:06:48.508Z,3.50
2023-02-27T13:09:20.833Z,3.63
2023-02-27T13:11:54.409Z,3.90
2023-02-27T13:14:28.119Z,3.80
2023-02-27T13:16:58.307Z,3.80
2023-02-27T13:19:29.688Z,4.15
2023-02-27T13:21:59.242Z,4.07
2023-02-27T13:24:28.173Z,3.55
2023-02-27T13:26:58.895Z,3.40
2023-02-27T13:29:35.451Z,4.10
2023-02-27T13:32:06.686Z,3.55
2023-02-27T13:37:46.350Z,3.55
2023-02-27T13:40:29.860Z,3.28
2023-02-27T13:42:58.861Z,4.43
2023-02-27T13:45:45.062Z,3.65
2023-02-27T13:48:31.449Z,2.72
2023-02-27T13:51:01.144Z,3.42
2023-02-27T13:53:29.489Z,3.13
2023-02-27T13:56:00.175Z,3.10
2023-02-27T13:58:27.763Z,3.05
2023-02-27T14:03:56.691Z,2.63
2023-02-27T14:06:26.278Z,3.35
2023-02-27T14:09:12.888Z,3.00
2023-02-27T14:11:52.380Z,3.63
2023-02-27T14:17:44.927Z,3.47
2023-02-27T14:20:13.848Z,2.97
2023-02-27T14:26:27.585Z,2.92
2023-02-27T14:28:58.227Z,3.50
2023-02-27T14:31:27.741Z,2.88
2023-02-27T14:33:56.620Z,3.33
2023-02-27T14:36:25.735Z,2.67
2023-02-27T14:38:57.694Z,3.22
2023-02-27T14:41:32.154Z,3.45
2023-02-27T14:46:57.597Z,2.83
2023-02-27T14:49:27.303Z,2.88
2023-02-27T14:51:55.442Z,2.47
2023-02-27T14:57:17.591Z,2.90
2023-02-27T14:59:46.874Z,2.80
2023-02-27T15:02:21.650Z,2.90
2023-02-27T15:04:50.560Z,3.22
2023-02-27T15:07:20.131Z,2.67
2023-02-27T15:09:51.604Z,2.85
2023-02-27T15:12:20.475Z,2.78
2023-02-27T15:14:48.839Z,2.97
2023-02-27T15:17:41.495Z,2.38
2023-02-27T15:20:23.609Z,3.15
2023-02-27T15:22:51.770Z,3.13
2023-02-27T15:25:32.337Z,3.28
2023-02-27T15:28:02.762Z,3.20
2023-02-27T15:30:30.878Z,2.90
2023-02-27T15:32:59.079Z,3.80
2023-02-27T15:35:28.992Z,3.20
2023-02-27T15:37:58.867Z,3.25
2023-02-27T15:40:30.587Z,2.90
2023-02-27T15:43:00.130Z,3.15
2023-02-27T15:45:29.892Z,3.05
2023-02-27T15:47:57.647Z,2.97
2023-02-27T15:50:27.060Z,2.65
2023-02-27T15:52:55.826Z,2.88
2023-02-27T15:55:25.796Z,3.22
2023-02-27T15:58:02.750Z,3.22
2023-02-27T16:00:32.950Z,3.30
2023-02-27T16:05:42.879Z,3.22
2023-02-27T16:08:29.605Z,3.40
2023-02-27T16:10:58.246Z,3.90
2023-02-27T16:13:35.904Z,4.22
2023-02-27T16:16:06.334Z,3.45
2023-02-27T16:18:35.525Z,4.30
2023-02-27T16:21:11.333Z,4.00
2023-02-27T16:23:40.188Z,4.50
2023-02-27T16:26:18.477Z,3.63
2023-02-27T16:28:51.891Z,4.07
2023-02-27T16:31:24.453Z,4.35
2023-02-27T16:33:52.380Z,4.47
2023-02-27T16:36:21.152Z,4.53
2023-02-27T16:38:49.075Z,4.47
2023-02-27T16:41:17.418Z,4.38
2023-02-27T16:43:46.168Z,4.00
2023-02-27T16:46:16.672Z,4.38
2023-02-27T16:48:45.660Z,4.72
2023-02-27T16:51:17.617Z,4.38
2023-02-27T16:53:45.693Z,4.82
2023-02-27T16:56:13.616Z,5.05
2023-02-27T16:58:41.161Z,4.68
2023-02-27T17:01:08.897Z,5.70
2023-02-27T17:03:36.408Z,5.45
2023-02-27T17:06:05.692Z,5.72
2023-02-27T17:08:33.257Z,7.88
2023-02-27T17:11:00.746Z,5.65
2023-02-27T17:13:28.271Z,5.10
2023-02-27T17:15:55.824Z,5.50
2023-02-27T17:18:34.609Z,5.53
2023-02-27T17:21:11.257Z,3.95
2023-02-27T17:23:40.130Z,5.65
2023-02-27T17:26:13.753Z,4.60
2023-02-27T17:28:41.385Z,4.80
2023-02-27T17:31:09.183Z,4.55
2023-02-27T17:33:38.696Z,4.13
2023-02-27T17:36:07.720Z,4.95
2023-02-27T17:38:44.087Z,5.65
2023-02-27T17:41:12.730Z,4.85
2023-02-27T17:43:42.633Z,5.28
2023-02-27T17:46:11.204Z,5.63
2023-02-27T17:48:39.588Z,5.35
2023-02-27T17:51:08.712Z,5.82
2023-02-27T17:53:37.096Z,6.18
2023-02-27T17:56:07.794Z,5.43
2023-02-27T17:58:35.898Z,5.82
2023-02-27T18:01:07.117Z,5.68
2023-02-27T18:03:35.317Z,5.10
2023-02-27T18:06:03.315Z,5.93
2023-02-27T18:08:31.418Z,5.35
2023-02-27T18:10:59.512Z,5.32
2023-02-27T18:13:28.803Z,5.13
2023-02-27T18:15:56.695Z,5.50
2023-02-27T18:18:24.525Z,5.70
2023-02-27T18:21:00.717Z,5.63
2023-02-27T18:23:28.642Z,5.18
2023-02-27T18:25:56.601Z,5.65
2023-02-27T18:28:24.274Z,5.50
2023-02-27T18:30:54.901Z,6.22
2023-02-27T18:33:23.583Z,6.68
2023-02-27T18:35:58.183Z,5.63
2023-02-27T18:38:25.922Z,5.05
2023-02-27T18:40:56.166Z,6.07
2023-02-27T18:43:23.886Z,5.38
2023-02-27T18:45:53.117Z,5.72
2023-02-27T18:48:20.958Z,5.68
2023-02-27T18:50:48.633Z,6.15
2023-02-27T18:53:16.210Z,4.75
2023-02-27T18:55:43.825Z,5.57
2023-02-27T19:01:05.071Z,4.70
2023-02-27T19:03:33.104Z,5.07
2023-02-27T19:06:03.675Z,4.65
2023-02-27T19:08:31.669Z,6.35
2023-02-27T19:10:59.828Z,5.95
2023-02-27T19:13:27.538Z,5.88
2023-02-27T19:15:55.809Z,5.88
2023-02-27T19:18:25.163Z,5.28
2023-02-27T19:20:52.711Z,5.53
2023-02-27T19:23:20.390Z,6.47
2023-02-27T19:25:48.987Z,5.45
2023-02-27T19:28:17.761Z,4.78
2023-02-27T19:30:45.247Z,5.57
2023-02-27T19:33:12.929Z,5.25
2023-02-27T19:35:43.547Z,5.05
2023-02-27T19:38:11.551Z,4.28
2023-02-27T19:40:39.102Z,5.30
2023-02-27T19:43:09.055Z,5.38
2023-02-27T19:45:40.852Z,4.97
2023-02-27T19:48:08.562Z,4.75
2023-02-27T19:50:36.974Z,4.85
2023-02-27T19:53:05.922Z,5.20
2023-02-27T19:55:34.083Z,4.28
2023-02-27T19:58:01.685Z,4.40
2023-02-27T20:00:29.746Z,4.95
2023-02-27T20:02:57.872Z,4.95
2023-02-27T20:05:25.544Z,4.78
2023-02-27T20:07:53.149Z,5.03
2023-02-27T20:10:22.413Z,4.60
2023-02-27T20:12:49.912Z,3.97
2023-02-27T20:15:17.484Z,4.85
2023-02-27T20:17:45.574Z,4.18
2023-02-27T20:20:13.843Z,4.88
2023-02-27T20:22:43.321Z,4.53
2023-02-27T20:25:11.621Z,4.65
2023-02-27T20:27:40.536Z,5.57
2023-02-27T20:30:10.540Z,4.20
2023-02-27T20:32:38.309Z,4.88
2023-02-27T20:35:06.579Z,5.35
2023-02-27T20:37:35.515Z,5.15
2023-02-27T20:40:04.201Z,5.15
2023-02-27T20:42:32.120Z,4.97
2023-02-27T20:45:01.200Z,4.32
2023-02-27T20:47:29.479Z,4.45
2023-02-27T20:49:57.118Z,4.80
2023-02-27T20:55:16.200Z,4.80
2023-02-27T20:57:43.873Z,4.72
2023-02-27T21:00:15.361Z,4.40
2023-02-27T21:02:43.294Z,4.82
2023-02-27T21:05:14.205Z,4.13
2023-02-27T21:07:42.465Z,4.60
2023-02-27T21:10:10.996Z,4.38
2023-02-27T21:12:40.522Z,3.95
2023-02-27T21:15:08.772Z,4.35
2023-02-27T21:17:38.008Z,4.78
2023-02-27T21:20:06.850Z,5.40
2023-02-27T21:22:35.996Z,4.30
2023-02-27T21:25:04.140Z,3.88
2023-02-27T21:27:32.293Z,4.20
2023-02-27T21:29:59.796Z,3.95
2023-02-27T21:32:27.639Z,4.38
2023-02-27T21:34:56.589Z,4.50
2023-02-27T21:37:24.148Z,3.67
2023-02-27T21:39:55.421Z,3.47
2023-02-27T21:42:23.253Z,3.83
2023-02-27T21:44:50.972Z,3.78
2023-02-27T21:47:19.164Z,3.47
2023-02-27T21:49:46.777Z,4.03
2023-02-27T21:52:15.813Z,4.10
2023-02-27T21:54:43.431Z,4.28
2023-02-27T21:57:11.050Z,3.75
2023-02-27T21:59:39.000Z,3.47
2023-02-27T22:02:06.531Z,4.20
2023-02-27T22:04:34.117Z,4.45
2023-02-27T22:07:02.080Z,4.43
2023-02-27T22:12:23.352Z,3.28
2023-02-27T22:14:51.142Z,2.95
2023-02-27T22:17:18.693Z,3.90
2023-02-27T22:22:39.306Z,3.63
2023-02-27T22:25:08.608Z,3.35
2023-02-27T22:27:36.236Z,3.13
2023-02-27T22:30:04.436Z,4.35
2023-02-27T22:32:32.172Z,3.33
2023-02-27T22:35:00.118Z,4.10
2023-02-27T22:40:21.197Z,3.88
2023-02-27T22:42:49.054Z,3.63
2023-02-27T22:45:16.706Z,4.10
2023-02-27T22:47:44.232Z,3.85
2023-02-27T22:50:12.446Z,3.55
2023-02-27T22:52:40.040Z,3.75
2023-02-27T22:55:08.095Z,3.42
2023-02-27T22:57:37.054Z,3.97
2023-02-27T23:00:05.877Z,4.20
2023-02-27T23:02:33.946Z,4.78
2023-02-27T23:05:01.785Z,3.58
2023-02-27T23:07:29.302Z,3.83
2023-02-27T23:12:50.064Z,3.80
2023-02-27T23:15:17.697Z,4.50
2023-02-27T23:17:57.632Z,3.75
2023-02-27T23:20:26.022Z,3.38
2023-02-27T23:22:53.610Z,3.17
2023-02-27T23:25:21.105Z,3.25
2023-02-27T23:27:49.917Z,4.28
2023-02-27T23:30:17.732Z,4.10
2023-02-27T23:32:45.799Z,3.53
2023-02-27T23:35:15.042Z,3.85
2023-02-27T23:37:42.605Z,3.78
2023-02-27T23:40:11.954Z,4.13
2023-02-27T23:42:39.741Z,3.83
2023-02-27T23:45:12.326Z,3.67
2023-02-27T23:47:42.810Z,3.85
2023-02-27T23:50:11.526Z,4.70
2023-02-27T23:52:39.096Z,3.78
2023-02-27T23:55:07.491Z,3.50
2023-02-27T23:57:35.018Z,3.90
